TimeCDT,TemperatureF,Dew PointF,Humidity,Sea Level PressureIn,VisibilityMPH,Wind Direction,Wind SpeedMPH,Gust SpeedMPH,PrecipitationIn,Events,Conditions,WindDirDegrees,DateUTC
12:53 AM,45.0,36.0,71,29.99,9.0,NE,4.6,-,N/A,,Clear,40,2012-11-02 05:53:00
1:53 AM,46.0,34.0,63,29.99,10.0,ENE,4.6,-,N/A,,Clear,60,2012-11-02 06:53:00
2:53 AM,45.0,33.1,63,29.99,10.0,East,8.1,-,N/A,,Clear,80,2012-11-02 07:53:00
3:53 AM,44.1,32.0,63,29.99,10.0,East,8.1,-,N/A,,Clear,80,2012-11-02 08:53:00
4:53 AM,43.0,32.0,65,29.99,10.0,East,6.9,-,N/A,,Clear,100,2012-11-02 09:53:00
5:53 AM,42.1,32.0,67,29.99,10.0,ESE,9.2,-,N/A,,Clear,110,2012-11-02 10:53:00
6:53 AM,41.0,30.9,67,30.00,10.0,ESE,8.1,-,N/A,,Clear,110,2012-11-02 11:53:00
7:53 AM,41.0,30.9,67,30.00,10.0,ESE,8.1,-,N/A,,Clear,110,2012-11-02 12:53:00
8:53 AM,42.1,30.9,65,30.01,10.0,East,5.8,-,N/A,,Clear,100,2012-11-02 13:53:00
9:53 AM,46.0,32.0,58,30.01,10.0,ESE,8.1,-,N/A,,Clear,120,2012-11-02 14:53:00
10:53 AM,48.9,30.9,50,30.00,10.0,ESE,12.7,-,N/A,,Clear,120,2012-11-02 15:53:00
11:53 AM,53.1,30.9,43,29.98,10.0,ESE,15.0,18.4,N/A,,Clear,120,2012-11-02 16:53:00
12:53 PM,57.0,30.0,36,29.95,10.0,ESE,11.5,-,N/A,,Clear,120,2012-11-02 17:53:00
1:53 PM,59.0,30.9,35,29.93,10.0,ESE,10.4,20.7,N/A,,Clear,110,2012-11-02 18:53:00
2:53 PM,60.1,30.9,33,29.90,10.0,East,15.0,20.7,N/A,,Clear,80,2012-11-02 19:53:00
3:53 PM,60.1,30.0,32,29.88,10.0,ESE,12.7,23.0,N/A,,Clear,110,2012-11-02 20:53:00
4:53 PM,57.9,30.0,35,29.90,10.0,ESE,12.7,-,N/A,,Clear,110,2012-11-02 21:53:00
5:53 PM,55.9,30.0,37,29.93,10.0,ESE,5.8,-,N/A,,Clear,110,2012-11-02 22:53:00
6:53 PM,53.1,30.0,41,29.96,10.0,East,5.8,-,N/A,,Clear,80,2012-11-02 23:53:00
7:53 PM,51.1,30.9,46,29.97,10.0,ENE,6.9,-,N/A,,Clear,70,2012-11-03 00:53:00
8:53 PM,48.9,30.9,50,29.97,10.0,ENE,5.8,-,N/A,,Clear,70,2012-11-03 01:53:00
9:53 PM,46.0,30.9,56,29.99,10.0,NE,6.9,-,N/A,,Clear,50,2012-11-03 02:53:00
10:53 PM,44.1,30.0,58,30.00,10.0,North,9.2,-,N/A,,Clear,10,2012-11-03 03:53:00
11:53 PM,42.1,30.0,62,30.01,10.0,North,6.9,-,N/A,,Clear,10,2012-11-03 04:53:00